createdAt,value
2023-03-28T00:00:33.423Z,102389.09
2023-03-28T00:01:34.090Z,102389.83
2023-03-28T00:02:34.266Z,102389.94
2023-03-28T00:03:34.313Z,102390.00
2023-03-28T00:03:43.852Z,102412.69
2023-03-28T00:04:43.963Z,102397.83
2023-03-28T00:05:44.670Z,102397.17
2023-03-28T00:06:45.324Z,102397.17
2023-03-28T00:07:46.137Z,102397.41
2023-03-28T00:08:46.733Z,102397.48
2023-03-28T00:09:47.381Z,102396.81
2023-03-28T00:10:48.309Z,102397.05
2023-03-28T00:11:48.743Z,102396.97
2023-03-28T00:12:49.570Z,102397.27
2023-03-28T00:13:50.161Z,102397.02
2023-03-28T00:14:51.093Z,102397.52
2023-03-28T00:14:59.681Z,102415.64
2023-03-28T00:16:00.869Z,102397.97
2023-03-28T00:17:01.221Z,102397.97
2023-03-28T00:18:01.929Z,102397.97
2023-03-28T00:19:02.593Z,102397.97
2023-03-28T00:20:03.345Z,102398.54
2023-03-28T00:21:04.372Z,102398.38
2023-03-28T00:22:05.040Z,102397.95
2023-03-28T00:23:05.861Z,102397.26
2023-03-28T00:24:06.778Z,102397.09
2023-03-28T00:25:07.453Z,102396.94
2023-03-28T00:25:17.625Z,102408.88
2023-03-28T00:26:18.392Z,102395.71
2023-03-28T00:27:18.979Z,102396.04
2023-03-28T00:28:19.683Z,102395.61
2023-03-28T00:29:20.443Z,102395.61
2023-03-28T00:30:21.297Z,102395.52
2023-03-28T00:31:22.250Z,102394.62
2023-03-28T00:32:23.071Z,102395.12
2023-03-28T00:33:23.656Z,102395.62
2023-03-28T00:34:24.319Z,102396.28
2023-03-28T00:35:24.857Z,102396.69
2023-03-28T00:36:25.597Z,102396.92
2023-03-28T00:36:35.288Z,102420.37
2023-03-28T00:37:36.047Z,102408.16
2023-03-28T00:38:36.719Z,102407.63
2023-03-28T00:39:37.324Z,102406.98
2023-03-28T00:40:38.021Z,102406.37
2023-03-28T00:41:38.749Z,102405.87
2023-03-28T00:42:39.397Z,102405.45
2023-03-28T00:43:40.035Z,102404.69
2023-03-28T00:44:40.833Z,102403.69
2023-03-28T00:45:41.606Z,102402.96
2023-03-28T00:46:42.308Z,102402.20
2023-03-28T00:46:51.500Z,102407.59
2023-03-28T00:47:51.458Z,102394.41
2023-03-28T00:48:52.144Z,102393.98
2023-03-28T00:49:52.851Z,102393.66
2023-03-28T00:50:53.473Z,102392.98
2023-03-28T00:51:54.314Z,102392.56
2023-03-28T00:52:55.009Z,102392.16
2023-03-28T00:53:55.764Z,102392.00
2023-03-28T00:54:56.423Z,102391.16
2023-03-28T00:55:57.719Z,102390.89
2023-03-28T00:56:57.412Z,102391.23
2023-03-28T00:57:57.515Z,102391.16
2023-03-28T00:58:07.207Z,102414.46
2023-03-28T00:59:07.864Z,102391.46
2023-03-28T01:00:08.491Z,102391.20
2023-03-28T01:01:09.296Z,102391.44
2023-03-28T01:02:10.037Z,102391.11
2023-03-28T01:03:10.746Z,102391.19
2023-03-28T01:04:10.822Z,102390.66
2023-03-28T01:05:11.683Z,102390.42
2023-03-28T01:06:12.437Z,102389.83
2023-03-28T01:07:13.128Z,102389.07
2023-03-28T01:08:13.803Z,102388.62
2023-03-28T01:08:22.524Z,102397.16
2023-03-28T01:09:23.235Z,102386.75
2023-03-28T01:10:23.665Z,102386.19
2023-03-28T01:11:24.405Z,102386.02
2023-03-28T01:12:25.114Z,102385.59
2023-03-28T01:13:25.839Z,102384.92
2023-03-28T01:14:25.948Z,102384.50
2023-03-28T01:15:26.674Z,102384.05
2023-03-28T01:16:27.404Z,102383.55
2023-03-28T01:17:28.073Z,102383.19
2023-03-28T01:18:28.708Z,102382.03
2023-03-28T01:19:29.158Z,102381.87
2023-03-28T01:20:29.759Z,102380.94
2023-03-28T01:20:38.846Z,102380.77
2023-03-28T01:21:39.400Z,102380.20
2023-03-28T01:22:40.054Z,102379.37
2023-03-28T01:23:40.073Z,102379.45
2023-03-28T01:24:40.690Z,102379.19
2023-03-28T01:25:41.686Z,102378.85
2023-03-28T01:26:42.373Z,102378.19
2023-03-28T01:27:43.113Z,102378.09
2023-03-28T01:28:43.706Z,102377.76
2023-03-28T01:30:00.745Z,102377.28
2023-03-28T01:31:01.400Z,102377.55
2023-03-28T01:32:02.199Z,102377.61
2023-03-28T01:33:02.972Z,102377.64
2023-03-28T01:34:03.612Z,102377.54
2023-03-28T01:35:04.293Z,102377.47
2023-03-28T01:36:05.074Z,102378.23
2023-03-28T01:37:05.795Z,102378.73
2023-03-28T01:38:07.752Z,102379.03
2023-03-28T01:39:07.467Z,102379.87
2023-03-28T01:40:08.097Z,102379.97
2023-03-28T01:41:08.760Z,102380.53
2023-03-28T01:41:18.913Z,102379.26
2023-03-28T01:42:19.706Z,102379.66
2023-03-28T01:43:20.243Z,102379.66
2023-03-28T01:44:20.471Z,102379.89
2023-03-28T01:45:21.421Z,102379.73
2023-03-28T01:46:22.141Z,102380.13
2023-03-28T01:47:22.942Z,102380.53
2023-03-28T01:48:23.641Z,102380.47
2023-03-28T01:49:24.282Z,102381.03
2023-03-28T01:50:24.938Z,102381.46
2023-03-28T01:51:25.717Z,102381.53
2023-03-28T01:51:34.989Z,102380.38
2023-03-28T01:52:35.666Z,102380.70
2023-03-28T01:53:36.428Z,102380.97
2023-03-28T01:54:37.089Z,102381.37
2023-03-28T01:55:41.839Z,102381.20
2023-03-28T01:56:38.479Z,102381.63
2023-03-28T01:57:39.354Z,102381.03
2023-03-28T01:58:40.023Z,102381.23
2023-03-28T01:59:40.723Z,102380.99
2023-03-28T02:00:41.281Z,102380.82
2023-03-28T02:01:41.935Z,102381.02
2023-03-28T02:02:42.732Z,102380.91
2023-03-28T02:02:51.342Z,102380.34
2023-03-28T02:03:51.581Z,102380.70
2023-03-28T02:04:52.286Z,102380.44
2023-03-28T02:05:53.015Z,102379.77
2023-03-28T02:06:53.620Z,102379.44
2023-03-28T02:07:54.315Z,102379.44
2023-03-28T02:08:55.070Z,102379.45
2023-03-28T02:09:55.667Z,102379.35
2023-03-28T02:10:56.303Z,102379.36
2023-03-28T02:11:56.902Z,102379.06
2023-03-28T02:12:57.572Z,102378.64
2023-03-28T02:13:58.322Z,102378.64
2023-03-28T02:14:58.978Z,102378.05
2023-03-28T02:15:07.566Z,102377.55
2023-03-28T02:16:08.245Z,102377.29
2023-03-28T02:17:09.084Z,102376.20
2023-03-28T02:18:09.793Z,102376.69
2023-03-28T02:19:10.512Z,102376.20
2023-03-28T02:20:11.255Z,102375.80
2023-03-28T02:21:11.901Z,102375.53
2023-03-28T02:22:12.569Z,102375.11
2023-03-28T02:23:13.198Z,102374.58
2023-03-28T02:24:13.891Z,102374.59
2023-03-28T02:25:14.583Z,102374.05
2023-03-28T02:26:15.285Z,102373.99
2023-03-28T02:27:15.958Z,102373.99
2023-03-28T02:27:25.132Z,102373.66
2023-03-28T02:28:25.768Z,102373.16
2023-03-28T02:29:26.417Z,102372.73
2023-03-28T02:30:26.639Z,102372.30
2023-03-28T02:31:27.385Z,102371.97
2023-03-28T02:32:28.159Z,102371.41
2023-03-28T02:33:28.806Z,102370.91
2023-03-28T02:34:30.738Z,102370.55
2023-03-28T02:35:30.419Z,102370.06
2023-03-28T02:36:31.088Z,102369.63
2023-03-28T02:37:31.797Z,102369.59
2023-03-28T02:37:41.008Z,102369.37
2023-03-28T02:38:41.933Z,102369.44
2023-03-28T02:39:42.623Z,102369.00
2023-03-28T02:40:43.319Z,102368.42
2023-03-28T02:41:43.980Z,102368.75
2023-03-28T02:42:44.703Z,102368.39
2023-03-28T02:43:45.306Z,102367.96
2023-03-28T02:44:46.159Z,102367.73
2023-03-28T02:45:46.926Z,102366.80
2023-03-28T02:46:47.566Z,102366.88
2023-03-28T02:47:48.185Z,102367.21
2023-03-28T02:48:48.897Z,102367.02
2023-03-28T02:49:50.753Z,102366.52
2023-03-28T02:49:58.253Z,102366.09
2023-03-28T02:50:58.919Z,102365.93
2023-03-28T02:51:59.671Z,102366.00
2023-03-28T02:53:00.398Z,102365.91
2023-03-28T02:54:01.025Z,102365.41
2023-03-28T02:55:01.704Z,102365.80
2023-03-28T02:56:02.683Z,102365.64
2023-03-28T02:57:03.088Z,102365.83
2023-03-28T02:58:03.696Z,102365.77
2023-03-28T02:59:04.400Z,102365.59
2023-03-28T03:00:05.056Z,102365.86
2023-03-28T03:00:13.779Z,102366.26
2023-03-28T03:01:14.712Z,102366.27
2023-03-28T03:02:15.125Z,102366.43
2023-03-28T03:03:15.896Z,102366.66
2023-03-28T03:04:16.109Z,102367.33
2023-03-28T03:05:16.413Z,102367.40
2023-03-28T03:06:17.108Z,102367.57
2023-03-28T03:07:17.783Z,102367.88
2023-03-28T03:08:18.529Z,102368.52
2023-03-28T03:09:19.193Z,102369.32
2023-03-28T03:10:19.895Z,102370.22
2023-03-28T03:11:20.599Z,102371.20
2023-03-28T03:11:30.265Z,102371.18
2023-03-28T03:12:30.977Z,102372.15
2023-03-28T03:13:31.717Z,102372.63
2023-03-28T03:14:31.845Z,102372.94
2023-03-28T03:15:32.577Z,102372.98
2023-03-28T03:16:33.241Z,102373.45
2023-03-28T03:17:33.906Z,102373.13
2023-03-28T03:18:34.819Z,102373.27
2023-03-28T03:19:35.488Z,102373.25
2023-03-28T03:20:36.162Z,102372.72
2023-03-28T03:21:36.432Z,102372.63
2023-03-28T03:22:37.040Z,102372.44
2023-03-28T03:23:37.756Z,102372.61
2023-03-28T03:23:47.371Z,102372.24
2023-03-28T03:24:48.074Z,102372.81
2023-03-28T03:25:48.819Z,102373.31
2023-03-28T03:26:49.633Z,102373.41
2023-03-28T03:27:50.400Z,102373.98
2023-03-28T03:28:51.130Z,102374.38
2023-03-28T03:29:51.839Z,102374.11
2023-03-28T03:30:52.605Z,102374.38
2023-03-28T03:31:52.902Z,102374.62
2023-03-28T03:32:53.698Z,102375.18
2023-03-28T03:33:54.359Z,102375.84
2023-03-28T03:34:55.249Z,102376.34
2023-03-28T03:35:03.872Z,102376.52
2023-03-28T03:36:04.536Z,102376.84
2023-03-28T03:37:05.124Z,102377.11
2023-03-28T03:38:05.816Z,102377.78
2023-03-28T03:39:05.903Z,102378.34
2023-03-28T03:40:06.566Z,102378.91
2023-03-28T03:41:07.239Z,102379.25
2023-03-28T03:42:07.913Z,102379.22
2023-03-28T03:43:07.988Z,102379.43
2023-03-28T03:44:08.810Z,102379.57
2023-03-28T03:45:09.474Z,102379.55
2023-03-28T03:46:10.188Z,102379.95
2023-03-28T03:46:18.773Z,102379.77
2023-03-28T03:47:19.377Z,102379.73
2023-03-28T03:48:20.049Z,102379.37
2023-03-28T03:49:20.733Z,102379.19
2023-03-28T03:50:21.607Z,102379.09
2023-03-28T03:51:22.271Z,102378.91
2023-03-28T03:52:22.937Z,102379.05
2023-03-28T03:53:23.691Z,102379.19
2023-03-28T03:54:24.539Z,102379.42
2023-03-28T03:55:24.842Z,102378.97
2023-03-28T03:56:25.543Z,102378.55
2023-03-28T03:57:26.234Z,102378.28
2023-03-28T03:57:34.897Z,102374.72
2023-03-28T03:58:35.510Z,102374.70
2023-03-28T03:59:36.257Z,102374.47
2023-03-28T04:00:36.879Z,102374.47
2023-03-28T04:01:37.668Z,102374.86
2023-03-28T04:02:38.341Z,102374.27
2023-03-28T04:03:39.038Z,102374.44
2023-03-28T04:04:39.660Z,102374.31
2023-03-28T04:05:40.416Z,102374.19
2023-03-28T04:06:41.041Z,102374.27
2023-03-28T04:07:41.778Z,102374.21
2023-03-28T04:07:50.428Z,102373.78
2023-03-28T04:08:51.087Z,102373.92
2023-03-28T04:09:51.802Z,102373.64
2023-03-28T04:10:52.460Z,102373.84
2023-03-28T04:11:53.109Z,102373.83
2023-03-28T04:12:53.913Z,102374.53
2023-03-28T04:14:26.797Z,102374.41
2023-03-28T04:15:27.476Z,102374.45
2023-03-28T04:16:28.313Z,102374.36
2023-03-28T04:17:28.902Z,102374.27
2023-03-28T04:18:29.515Z,102374.43
2023-03-28T04:19:30.162Z,102373.80
2023-03-28T04:20:30.838Z,102374.14
2023-03-28T04:21:31.539Z,102373.78
2023-03-28T04:22:32.296Z,102373.45
2023-03-28T04:23:34.017Z,102373.85
2023-03-28T04:24:32.949Z,102373.95
2023-03-28T04:25:33.717Z,102374.09
2023-03-28T04:25:42.352Z,102374.00
2023-03-28T04:26:43.030Z,102374.56
2023-03-28T04:27:43.741Z,102374.63
2023-03-28T04:28:44.413Z,102375.11
2023-03-28T04:29:45.322Z,102375.84
2023-03-28T04:30:46.261Z,102376.08
2023-03-28T04:31:47.263Z,102376.55
2023-03-28T04:32:47.959Z,102377.05
2023-03-28T04:33:48.521Z,102377.69
2023-03-28T04:34:49.250Z,102377.82
2023-03-28T04:35:49.963Z,102377.89
2023-03-28T04:36:00.947Z,102378.53
2023-03-28T04:37:01.395Z,102379.19
2023-03-28T04:38:02.048Z,102379.66
2023-03-28T04:39:02.813Z,102380.00
2023-03-28T04:40:03.351Z,102380.89
2023-03-28T04:41:04.070Z,102381.39
2023-03-28T04:42:04.989Z,102382.03
2023-03-28T04:43:05.557Z,102382.53
2023-03-28T04:44:31.624Z,102383.56
2023-03-28T04:45:41.293Z,102384.33
2023-03-28T04:46:32.926Z,102384.13
2023-03-28T04:47:33.822Z,102384.73
2023-03-28T04:48:34.478Z,102385.13
2023-03-28T04:49:34.852Z,102385.53
2023-03-28T04:50:35.960Z,102385.86
2023-03-28T04:51:35.758Z,102386.03
2023-03-28T04:52:36.627Z,102385.96
2023-03-28T04:53:37.376Z,102385.96
2023-03-28T04:54:38.019Z,102386.45
2023-03-28T04:55:38.702Z,102386.20
2023-03-28T04:55:47.341Z,102387.02
2023-03-28T04:56:48.110Z,102386.92
2023-03-28T04:57:48.743Z,102387.42
2023-03-28T04:58:48.827Z,102388.09
2023-03-28T04:59:49.474Z,102389.25
2023-03-28T05:00:50.088Z,102389.84
2023-03-28T05:01:51.154Z,102390.72
2023-03-28T05:02:51.853Z,102391.98
2023-03-28T05:03:52.521Z,102392.55
2023-03-28T05:04:53.259Z,102393.27
2023-03-28T05:05:53.923Z,102394.50
2023-03-28T05:06:57.465Z,102395.66
2023-03-28T05:07:07.168Z,102396.59
2023-03-28T05:08:07.163Z,102397.33
2023-03-28T05:09:07.833Z,102398.48
2023-03-28T05:10:08.679Z,102399.39
2023-03-28T05:11:09.320Z,102400.65
2023-03-28T05:12:10.007Z,102401.38
2023-03-28T05:13:10.671Z,102402.87
2023-03-28T05:14:11.597Z,102403.37
2023-03-28T05:15:21.966Z,102403.87
2023-03-28T05:16:12.907Z,102404.80
2023-03-28T05:17:13.691Z,102405.12
2023-03-28T05:18:14.490Z,102405.80
2023-03-28T05:18:23.619Z,102405.95
2023-03-28T05:19:24.317Z,102406.45
2023-03-28T05:20:25.040Z,102406.63
2023-03-28T05:21:25.067Z,102407.02
2023-03-28T05:22:25.829Z,102407.55
2023-03-28T05:23:26.620Z,102407.88
2023-03-28T05:24:27.544Z,102408.77
2023-03-28T05:25:27.631Z,102408.88
2023-03-28T05:26:28.395Z,102409.23
2023-03-28T05:27:29.590Z,102409.23
2023-03-28T05:28:29.354Z,102409.47
2023-03-28T05:29:30.177Z,102409.89
2023-03-28T05:29:39.331Z,102410.03
2023-03-28T05:30:39.955Z,102410.27
2023-03-28T05:31:40.912Z,102411.33
2023-03-28T05:32:41.565Z,102411.77
2023-03-28T05:33:42.245Z,102412.59
2023-03-28T05:34:42.956Z,102413.26
2023-03-28T05:35:43.575Z,102413.16
2023-03-28T05:36:44.345Z,102413.06
2023-03-28T05:37:46.954Z,102413.23
2023-03-28T05:38:45.747Z,102413.89
2023-03-28T05:39:46.404Z,102413.56
2023-03-28T05:40:47.034Z,102413.89
2023-03-28T05:40:55.665Z,102413.63
2023-03-28T05:41:56.314Z,102414.06
2023-03-28T05:42:56.975Z,102414.55
2023-03-28T05:43:57.374Z,102414.62
2023-03-28T05:44:57.980Z,102414.95
2023-03-28T05:45:58.844Z,102415.12
2023-03-28T05:46:59.524Z,102415.39
2023-03-28T05:48:00.352Z,102415.72
2023-03-28T05:49:00.974Z,102415.72
2023-03-28T05:50:01.619Z,102415.36
2023-03-28T05:51:02.472Z,102416.02
2023-03-28T05:51:11.634Z,102415.92
2023-03-28T05:52:12.261Z,102416.25
2023-03-28T05:53:12.920Z,102416.85
2023-03-28T05:54:13.645Z,102417.34
2023-03-28T05:55:14.175Z,102417.11
2023-03-28T05:56:14.829Z,102417.54
2023-03-28T05:57:15.681Z,102417.73
2023-03-28T05:58:16.374Z,102417.73
2023-03-28T05:59:17.077Z,102417.73
2023-03-28T06:00:17.734Z,102418.19
2023-03-28T06:01:18.471Z,102417.53
2023-03-28T06:01:27.664Z,102417.63
2023-03-28T06:02:28.288Z,102418.15
2023-03-28T06:03:28.936Z,102417.68
2023-03-28T06:04:29.592Z,102418.17
2023-03-28T06:05:30.417Z,102418.17
2023-03-28T06:06:31.080Z,102418.38
2023-03-28T06:07:42.092Z,102418.70
2023-03-28T06:08:32.116Z,102418.46
2023-03-28T06:09:32.890Z,102418.66
2023-03-28T06:10:33.575Z,102419.25
2023-03-28T06:11:34.191Z,102419.25
2023-03-28T06:12:34.828Z,102419.45
2023-03-28T06:12:44.008Z,102420.14
2023-03-28T06:13:44.623Z,102420.40
2023-03-28T06:14:45.346Z,102420.59
2023-03-28T06:15:46.170Z,102420.36
2023-03-28T06:16:46.594Z,102420.78
2023-03-28T06:17:47.356Z,102421.24
2023-03-28T06:18:48.069Z,102421.34
2023-03-28T06:19:48.798Z,102421.67
2023-03-28T06:20:49.760Z,102422.36
2023-03-28T06:21:49.963Z,102422.66
2023-03-28T06:22:50.270Z,102422.34
2023-03-28T06:23:50.832Z,102422.70
2023-03-28T06:23:59.470Z,102422.80
2023-03-28T06:25:00.227Z,102423.16
2023-03-28T06:26:00.968Z,102422.84
2023-03-28T06:27:01.605Z,102423.44
2023-03-28T06:28:02.129Z,102424.05
2023-03-28T06:29:02.835Z,102424.34
2023-03-28T06:30:03.618Z,102424.51
2023-03-28T06:31:04.662Z,102424.67
2023-03-28T06:32:08.488Z,102424.94
2023-03-28T06:33:06.163Z,102425.70
2023-03-28T06:34:06.862Z,102426.06
2023-03-28T06:34:16.016Z,102426.59
2023-03-28T06:35:16.727Z,102426.84
2023-03-28T06:36:17.527Z,102427.77
2023-03-28T06:37:18.146Z,102428.36
2023-03-28T06:38:18.887Z,102429.29
2023-03-28T06:39:19.573Z,102430.22
2023-03-28T06:40:20.491Z,102431.17
2023-03-28T06:41:20.631Z,102431.86
2023-03-28T06:42:20.689Z,102432.65
2023-03-28T06:43:21.370Z,102433.30
2023-03-28T06:44:30.346Z,102433.81
2023-03-28T06:45:23.017Z,102434.70
2023-03-28T06:46:26.660Z,102435.34
2023-03-28T06:46:35.699Z,102435.56
2023-03-28T06:47:35.315Z,102436.19
2023-03-28T06:48:36.522Z,102436.57
2023-03-28T06:50:08.152Z,102438.02
2023-03-28T06:51:07.808Z,102438.61
2023-03-28T06:52:08.660Z,102439.30
2023-03-28T06:53:09.269Z,102439.56
2023-03-28T06:54:09.969Z,102439.92
2023-03-28T06:55:10.330Z,102440.80
2023-03-28T06:56:10.562Z,102441.19
2023-03-28T06:57:11.445Z,102441.40
2023-03-28T06:58:12.030Z,102442.45
2023-03-28T06:59:12.890Z,102442.70
2023-03-28T07:00:13.839Z,102442.52
2023-03-28T07:01:13.891Z,102443.42
2023-03-28T07:01:24.041Z,102444.39
2023-03-28T07:02:25.025Z,102445.08
2023-03-28T07:03:25.958Z,102445.91
2023-03-28T07:04:26.614Z,102446.69
2023-03-28T07:05:27.556Z,102448.10
2023-03-28T07:06:28.326Z,102449.76
2023-03-28T07:07:29.096Z,102452.34
2023-03-28T07:08:29.800Z,102454.83
2023-03-28T07:09:30.560Z,102458.39
2023-03-28T07:10:31.354Z,102462.08
2023-03-28T07:11:32.206Z,102465.94
2023-03-28T07:12:33.002Z,102470.11
2023-03-28T07:12:42.055Z,102474.28
2023-03-28T07:13:42.880Z,102478.33
2023-03-28T07:14:43.639Z,102482.16
2023-03-28T07:15:44.342Z,102486.47
2023-03-28T07:16:45.006Z,102490.98
2023-03-28T07:17:45.541Z,102495.25
2023-03-28T07:18:46.482Z,102498.88
2023-03-28T07:19:46.691Z,102503.33
2023-03-28T07:20:57.950Z,102506.94
2023-03-28T07:21:47.856Z,102510.75
2023-03-28T07:22:48.558Z,102514.37
2023-03-28T07:23:49.347Z,102517.38
2023-03-28T07:23:57.989Z,102520.03
2023-03-28T07:24:58.747Z,102523.72
2023-03-28T07:25:59.415Z,102526.38
2023-03-28T07:27:12.374Z,102530.58
2023-03-28T07:28:01.030Z,102533.70
2023-03-28T07:29:01.832Z,102537.07
2023-03-28T07:30:02.762Z,102540.32
2023-03-28T07:31:03.727Z,102543.68
2023-03-28T07:32:04.493Z,102548.61
2023-03-28T07:33:18.347Z,102553.09
2023-03-28T07:34:05.864Z,102557.83
2023-03-28T07:35:06.482Z,102563.28
2023-03-28T07:35:15.164Z,102579.80
2023-03-28T07:36:15.820Z,102658.81
2023-03-28T07:37:16.482Z,102659.28
2023-03-28T07:38:17.229Z,102661.63
2023-03-28T07:39:17.866Z,102663.78
2023-03-28T07:40:18.481Z,102667.27
2023-03-28T07:41:19.262Z,102670.84
2023-03-28T07:42:19.982Z,102676.03
2023-03-28T07:43:20.152Z,102680.36
2023-03-28T07:44:20.816Z,102684.25
2023-03-28T07:45:21.381Z,102689.27
2023-03-28T07:45:34.598Z,102630.42
2023-03-28T07:46:34.142Z,102761.63
2023-03-28T07:47:38.658Z,102760.82
2023-03-28T07:48:35.263Z,102761.41
2023-03-28T07:49:35.739Z,102761.87
2023-03-28T07:50:36.430Z,102761.87
2023-03-28T07:51:37.135Z,102763.03
2023-03-28T07:52:38.142Z,102764.00
2023-03-28T07:53:38.876Z,102765.27
2023-03-28T07:54:39.633Z,102766.48
2023-03-28T07:56:41.165Z,102768.86
2023-03-28T07:56:49.701Z,102562.98
2023-03-28T07:57:50.450Z,102789.48
2023-03-28T07:58:51.257Z,102789.78
2023-03-28T07:59:51.888Z,102790.49
2023-03-28T08:00:52.598Z,102791.09
2023-03-28T08:01:52.657Z,102791.50
2023-03-28T08:02:53.552Z,102792.27
2023-03-28T08:03:53.757Z,102793.17
2023-03-28T08:04:54.349Z,102793.52
2023-03-28T08:05:55.188Z,102794.41
2023-03-28T08:06:55.896Z,102795.56
2023-03-28T08:07:07.621Z,102441.90
2023-03-28T08:08:07.615Z,102810.16
2023-03-28T08:09:08.114Z,102809.63
2023-03-28T08:10:08.703Z,102810.39
2023-03-28T08:11:09.595Z,102810.52
2023-03-28T08:12:10.564Z,102811.14
2023-03-28T08:13:10.761Z,102811.02
2023-03-28T08:14:11.550Z,102810.96
2023-03-28T08:15:12.298Z,102811.38
2023-03-28T08:16:13.234Z,102810.98
2023-03-28T08:17:13.337Z,102810.73
2023-03-28T08:18:14.018Z,102810.42
2023-03-28T08:18:23.686Z,102526.53
2023-03-28T08:19:24.534Z,102805.13
2023-03-28T08:20:24.628Z,102804.80
2023-03-28T08:21:26.726Z,102804.51
2023-03-28T08:22:26.184Z,102804.92
2023-03-28T08:23:26.885Z,102805.28
2023-03-28T08:24:35.355Z,102805.02
2023-03-28T08:25:28.257Z,102805.05
2023-03-28T08:26:29.120Z,102804.92
2023-03-28T08:27:29.480Z,102804.83
2023-03-28T08:28:30.367Z,102804.91
2023-03-28T08:29:31.235Z,102804.70
2023-03-28T08:29:40.328Z,102538.03
2023-03-28T08:30:40.867Z,102812.03
2023-03-28T08:31:41.156Z,102812.25
2023-03-28T08:32:41.305Z,102812.61
2023-03-28T08:33:42.103Z,102812.77
2023-03-28T08:34:42.976Z,102812.96
2023-03-28T08:35:43.866Z,102813.03
2023-03-28T08:36:44.459Z,102813.48
2023-03-28T08:37:45.278Z,102813.34
2023-03-28T08:38:46.097Z,102813.42
2023-03-28T08:39:46.868Z,102813.16
2023-03-28T08:39:55.543Z,102499.98
2023-03-28T08:40:56.322Z,102810.98
2023-03-28T08:41:57.172Z,102811.00
2023-03-28T08:42:57.401Z,102811.11
2023-03-28T08:43:58.155Z,102810.77
2023-03-28T08:45:32.728Z,102433.62
2023-03-28T08:46:33.556Z,102802.41
2023-03-28T08:47:34.306Z,102802.39
2023-03-28T08:48:34.981Z,102802.45
2023-03-28T08:49:35.433Z,102802.81
2023-03-28T08:50:35.901Z,102802.96
2023-03-28T08:51:36.780Z,102803.25
2023-03-28T08:52:37.549Z,102803.62
2023-03-28T08:53:37.677Z,102803.77
2023-03-28T08:54:38.355Z,102803.94
2023-03-28T08:55:39.126Z,102804.23
2023-03-28T08:55:47.848Z,102441.78
2023-03-28T08:56:48.069Z,102807.78
2023-03-28T08:57:48.773Z,102807.80
2023-03-28T08:58:49.645Z,102808.70
2023-03-28T08:59:50.553Z,102808.42
2023-03-28T09:00:50.713Z,102808.61
2023-03-28T09:01:51.665Z,102808.83
2023-03-28T09:02:52.158Z,102808.73
2023-03-28T09:04:53.077Z,102808.56
2023-03-28T09:05:53.907Z,102808.69
2023-03-28T09:06:54.663Z,102809.50
2023-03-28T09:07:04.380Z,102584.78
2023-03-28T09:08:04.941Z,102805.64
2023-03-28T09:09:05.785Z,102805.29
2023-03-28T09:10:06.772Z,102805.77
2023-03-28T09:11:06.936Z,102805.33
2023-03-28T09:12:07.753Z,102805.98
2023-03-28T09:13:08.493Z,102805.63
2023-03-28T09:14:09.218Z,102805.67
2023-03-28T09:15:09.977Z,102805.61
2023-03-28T09:16:10.011Z,102805.35
2023-03-28T09:17:10.765Z,102805.52
2023-03-28T09:18:11.443Z,102805.87
2023-03-28T09:18:20.059Z,102506.49
2023-03-28T09:19:20.843Z,102805.28
2023-03-28T09:20:21.692Z,102804.90
2023-03-28T09:21:22.538Z,102805.15
2023-03-28T09:22:23.376Z,102805.09
2023-03-28T09:23:24.060Z,102804.70
2023-03-28T09:24:24.726Z,102804.17
2023-03-28T09:25:25.335Z,102803.73
2023-03-28T09:26:26.101Z,102802.87
2023-03-28T09:27:26.798Z,102802.31
2023-03-28T09:28:27.167Z,102802.16
2023-03-28T09:29:27.277Z,102801.27
2023-03-28T09:29:36.932Z,102543.50
2023-03-28T09:30:37.129Z,102796.41
2023-03-28T09:31:38.078Z,102796.33
2023-03-28T09:32:38.780Z,102795.95
2023-03-28T09:33:38.796Z,102795.70
2023-03-28T09:34:39.734Z,102795.63
2023-03-28T09:35:40.501Z,102795.47
2023-03-28T09:36:48.322Z,102794.77
2023-03-28T09:37:42.346Z,102794.78
2023-03-28T09:38:43.035Z,102794.33
2023-03-28T09:39:43.782Z,102794.55
2023-03-28T09:40:44.684Z,102794.52
2023-03-28T09:40:53.362Z,102614.02
2023-03-28T09:41:53.491Z,102788.63
2023-03-28T09:42:54.059Z,102788.42
2023-03-28T09:43:59.163Z,102788.56
2023-03-28T09:45:02.580Z,102788.58
2023-03-28T09:45:56.368Z,102788.91
2023-03-28T09:46:57.179Z,102788.91
2023-03-28T09:47:57.956Z,102789.20
2023-03-28T09:48:58.360Z,102789.41
2023-03-28T09:50:09.448Z,102789.59
2023-03-28T09:51:00.008Z,102789.01
2023-03-28T09:52:00.630Z,102788.56
2023-03-28T09:53:01.313Z,102788.20
2023-03-28T09:53:10.953Z,102662.81
2023-03-28T09:54:11.811Z,102786.12
2023-03-28T09:55:12.585Z,102785.36
2023-03-28T09:56:13.388Z,102784.67
2023-03-28T09:57:14.193Z,102784.55
2023-03-28T09:58:14.326Z,102784.33
2023-03-28T09:59:15.050Z,102784.00
2023-03-28T10:00:15.793Z,102783.80
2023-03-28T10:01:16.679Z,102783.11
2023-03-28T10:02:17.321Z,102783.00
2023-03-28T10:03:17.405Z,102782.59
2023-03-28T10:04:18.195Z,102782.05
2023-03-28T10:04:27.842Z,102625.46
2023-03-28T10:05:28.632Z,102778.20
2023-03-28T10:06:29.354Z,102778.11
2023-03-28T10:07:30.026Z,102778.14
2023-03-28T10:08:30.310Z,102777.66
2023-03-28T10:09:31.046Z,102777.39
2023-03-28T10:10:31.329Z,102776.90
2023-03-28T10:11:32.311Z,102776.11
2023-03-28T10:12:34.063Z,102775.43
2023-03-28T10:13:33.882Z,102774.50
2023-03-28T10:14:34.676Z,102773.89
2023-03-28T10:15:35.430Z,102773.36
2023-03-28T10:15:44.096Z,102578.81
2023-03-28T10:16:44.480Z,102767.59
2023-03-28T10:17:44.833Z,102767.44
2023-03-28T10:18:45.458Z,102767.11
2023-03-28T10:19:45.543Z,102766.98
2023-03-28T10:20:46.538Z,102767.19
2023-03-28T10:21:47.402Z,102767.17
2023-03-28T10:22:47.619Z,102766.59
2023-03-28T10:23:48.461Z,102765.95
2023-03-28T10:24:49.184Z,102765.57
2023-03-28T10:25:49.977Z,102765.05
2023-03-28T10:25:58.617Z,102648.75
2023-03-28T10:27:00.450Z,102767.76
2023-03-28T10:28:00.235Z,102767.19
2023-03-28T10:29:03.773Z,102766.84
2023-03-28T10:30:01.543Z,102766.41
2023-03-28T10:31:02.773Z,102765.94
2023-03-28T10:32:02.788Z,102765.41
2023-03-28T10:33:03.450Z,102764.89
2023-03-28T10:34:03.732Z,102764.77
2023-03-28T10:35:04.710Z,102764.32
2023-03-28T10:36:05.733Z,102763.62
2023-03-28T10:37:06.424Z,102763.22
2023-03-28T10:38:06.846Z,102762.05
2023-03-28T10:38:15.557Z,102573.92
2023-03-28T10:39:15.911Z,102752.03
2023-03-28T10:40:16.799Z,102751.70
2023-03-28T10:41:16.851Z,102751.55
2023-03-28T10:42:17.633Z,102751.41
2023-03-28T10:43:18.450Z,102751.09
2023-03-28T10:44:19.229Z,102750.77
2023-03-28T10:45:20.125Z,102749.95
2023-03-28T10:46:20.861Z,102749.77
2023-03-28T10:47:21.094Z,102749.45
2023-03-28T10:48:22.012Z,102749.21
2023-03-28T10:49:22.764Z,102748.73